Terminal Aerodrome Forecast
Issued by NWS Cleveland, OH

Home | Current Version | Previous Version | Text Only | Print | Product List | Glossary Off
Versions: 1 2 3 4 5 6 7 8 9 10 11 12 13

000
FTUS41 KCLE 291123
TAFERI
TAF
KERI 291123Z 2912/3012 20005KT P6SM FEW120 BKN250
     FM291500 26006KT P6SM SCT120 OVC250
     FM291700 34008KT P6SM SCT120 OVC250
     FM300000 03003KT P6SM SCT050 OVC120
     FM300300 14003KT P6SM OVC050=

USA.gov is the U.S. government's official web portal to all federal, state and local government web resources and services.